sensor_id;sensor_type;location;lat;lon;timestamp;P1;durP1;ratioP1;P2;durP2;ratioP2
34765;SDS011;20984;43.508;1.504;2023-08-06T00:00:19;6.40;;;2.78;;
34765;SDS011;20984;43.508;1.504;2023-08-06T00:02:45;4.97;;;2.72;;
34765;SDS011;20984;43.508;1.504;2023-08-06T00:05:11;7.20;;;3.20;;
34765;SDS011;20984;43.508;1.504;2023-08-06T00:07:37;4.32;;;3.08;;
34765;SDS011;20984;43.508;1.504;2023-08-06T00:10:02;4.70;;;3.42;;
34765;SDS011;20984;43.508;1.504;2023-08-06T00:12:28;8.32;;;3.30;;
34765;SDS011;20984;43.508;1.504;2023-08-06T00:14:54;5.25;;;2.88;;
34765;SDS011;20984;43.508;1.504;2023-08-06T00:17:19;5.78;;;3.00;;
34765;SDS011;20984;43.508;1.504;2023-08-06T00:19:45;5.70;;;3.40;;
34765;SDS011;20984;43.508;1.504;2023-08-06T00:22:11;6.03;;;3.15;;
34765;SDS011;20984;43.508;1.504;2023-08-06T00:24:36;9.00;;;3.53;;
34765;SDS011;20984;43.508;1.504;2023-08-06T00:27:02;9.43;;;3.40;;
34765;SDS011;20984;43.508;1.504;2023-08-06T00:29:28;5.70;;;3.30;;
34765;SDS011;20984;43.508;1.504;2023-08-06T00:31:54;7.30;;;3.47;;
34765;SDS011;20984;43.508;1.504;2023-08-06T00:34:19;9.40;;;3.72;;
34765;SDS011;20984;43.508;1.504;2023-08-06T00:36:45;7.20;;;4.82;;
34765;SDS011;20984;43.508;1.504;2023-08-06T00:39:11;4.53;;;3.03;;
34765;SDS011;20984;43.508;1.504;2023-08-06T00:41:37;5.00;;;3.33;;
34765;SDS011;20984;43.508;1.504;2023-08-06T00:44:02;7.57;;;3.60;;
34765;SDS011;20984;43.508;1.504;2023-08-06T00:46:28;8.25;;;3.58;;
34765;SDS011;20984;43.508;1.504;2023-08-06T00:48:54;9.27;;;3.38;;
34765;SDS011;20984;43.508;1.504;2023-08-06T00:51:21;7.63;;;4.13;;
34765;SDS011;20984;43.508;1.504;2023-08-06T00:53:48;8.90;;;3.38;;
34765;SDS011;20984;43.508;1.504;2023-08-06T00:56:15;6.97;;;3.80;;
34765;SDS011;20984;43.508;1.504;2023-08-06T00:58:41;7.03;;;3.50;;
34765;SDS011;20984;43.508;1.504;2023-08-06T01:01:07;13.52;;;4.15;;
34765;SDS011;20984;43.508;1.504;2023-08-06T01:03:33;9.23;;;4.38;;
34765;SDS011;20984;43.508;1.504;2023-08-06T01:05:58;7.65;;;3.22;;
34765;SDS011;20984;43.508;1.504;2023-08-06T01:10:53;5.43;;;3.22;;
34765;SDS011;20984;43.508;1.504;2023-08-06T01:16:14;10.88;;;4.05;;
34765;SDS011;20984;43.508;1.504;2023-08-06T01:18:42;8.32;;;3.88;;
34765;SDS011;20984;43.508;1.504;2023-08-06T01:21:11;13.63;;;4.45;;
34765;SDS011;20984;43.508;1.504;2023-08-06T01:23:39;8.55;;;3.40;;
34765;SDS011;20984;43.508;1.504;2023-08-06T01:26:14;7.80;;;3.85;;
34765;SDS011;20984;43.508;1.504;2023-08-06T01:28:59;9.70;;;3.25;;
34765;SDS011;20984;43.508;1.504;2023-08-06T01:31:36;12.65;;;3.53;;
34765;SDS011;20984;43.508;1.504;2023-08-06T01:34:05;9.27;;;3.17;;
34765;SDS011;20984;43.508;1.504;2023-08-06T01:36:34;9.43;;;3.03;;
34765;SDS011;20984;43.508;1.504;2023-08-06T01:39:01;11.73;;;3.45;;
34765;SDS011;20984;43.508;1.504;2023-08-06T01:41:27;8.75;;;2.95;;
34765;SDS011;20984;43.508;1.504;2023-08-06T01:43:52;9.20;;;2.97;;
34765;SDS011;20984;43.508;1.504;2023-08-06T01:46:18;8.43;;;2.80;;
34765;SDS011;20984;43.508;1.504;2023-08-06T01:48:43;4.45;;;2.53;;
34765;SDS011;20984;43.508;1.504;2023-08-06T01:51:09;8.18;;;2.72;;
34765;SDS011;20984;43.508;1.504;2023-08-06T01:53:35;11.25;;;2.90;;
34765;SDS011;20984;43.508;1.504;2023-08-06T01:56:00;13.70;;;3.28;;
34765;SDS011;20984;43.508;1.504;2023-08-06T01:58:26;14.20;;;3.72;;
34765;SDS011;20984;43.508;1.504;2023-08-06T02:00:52;8.73;;;3.30;;
34765;SDS011;20984;43.508;1.504;2023-08-06T02:03:17;10.95;;;3.20;;
34765;SDS011;20984;43.508;1.504;2023-08-06T02:05:43;13.38;;;3.20;;
34765;SDS011;20984;43.508;1.504;2023-08-06T02:08:09;12.82;;;4.10;;
34765;SDS011;20984;43.508;1.504;2023-08-06T02:10:34;9.18;;;3.17;;
34765;SDS011;20984;43.508;1.504;2023-08-06T02:13:00;9.13;;;2.88;;
34765;SDS011;20984;43.508;1.504;2023-08-06T02:15:26;9.48;;;2.85;;
34765;SDS011;20984;43.508;1.504;2023-08-06T02:17:52;10.18;;;3.38;;
34765;SDS011;20984;43.508;1.504;2023-08-06T02:20:17;9.30;;;3.20;;
34765;SDS011;20984;43.508;1.504;2023-08-06T02:22:43;15.45;;;3.67;;
34765;SDS011;20984;43.508;1.504;2023-08-06T02:25:08;15.50;;;6.65;;
34765;SDS011;20984;43.508;1.504;2023-08-06T02:27:34;11.05;;;2.95;;
34765;SDS011;20984;43.508;1.504;2023-08-06T02:30:00;17.02;;;3.65;;
34765;SDS011;20984;43.508;1.504;2023-08-06T02:32:27;8.98;;;2.90;;
34765;SDS011;20984;43.508;1.504;2023-08-06T02:34:55;15.57;;;3.50;;
34765;SDS011;20984;43.508;1.504;2023-08-06T02:37:20;11.48;;;3.70;;
34765;SDS011;20984;43.508;1.504;2023-08-06T02:39:46;7.38;;;2.88;;
34765;SDS011;20984;43.508;1.504;2023-08-06T02:42:12;11.10;;;2.75;;
34765;SDS011;20984;43.508;1.504;2023-08-06T02:44:37;8.68;;;2.38;;
34765;SDS011;20984;43.508;1.504;2023-08-06T02:47:03;12.98;;;3.08;;
34765;SDS011;20984;43.508;1.504;2023-08-06T02:49:29;16.63;;;3.17;;
34765;SDS011;20984;43.508;1.504;2023-08-06T02:51:55;9.02;;;2.75;;
34765;SDS011;20984;43.508;1.504;2023-08-06T02:54:20;10.05;;;3.25;;
34765;SDS011;20984;43.508;1.504;2023-08-06T02:56:46;11.98;;;3.15;;
34765;SDS011;20984;43.508;1.504;2023-08-06T02:59:12;8.43;;;3.03;;
34765;SDS011;20984;43.508;1.504;2023-08-06T03:01:38;16.42;;;3.33;;
34765;SDS011;20984;43.508;1.504;2023-08-06T03:04:04;14.85;;;3.50;;
34765;SDS011;20984;43.508;1.504;2023-08-06T03:06:30;10.35;;;2.58;;
34765;SDS011;20984;43.508;1.504;2023-08-06T03:08:55;15.32;;;2.83;;
34765;SDS011;20984;43.508;1.504;2023-08-06T03:11:21;9.40;;;2.67;;
34765;SDS011;20984;43.508;1.504;2023-08-06T03:13:47;11.23;;;2.38;;
34765;SDS011;20984;43.508;1.504;2023-08-06T03:16:13;10.50;;;2.75;;
34765;SDS011;20984;43.508;1.504;2023-08-06T03:18:39;12.43;;;2.92;;
34765;SDS011;20984;43.508;1.504;2023-08-06T03:21:05;9.80;;;3.35;;
34765;SDS011;20984;43.508;1.504;2023-08-06T03:23:31;9.27;;;3.13;;
34765;SDS011;20984;43.508;1.504;2023-08-06T03:26:00;8.48;;;2.30;;
34765;SDS011;20984;43.508;1.504;2023-08-06T03:28:29;9.85;;;2.65;;
34765;SDS011;20984;43.508;1.504;2023-08-06T03:31:04;10.27;;;3.15;;
34765;SDS011;20984;43.508;1.504;2023-08-06T03:33:30;18.65;;;2.80;;
34765;SDS011;20984;43.508;1.504;2023-08-06T03:35:56;11.50;;;3.72;;
34765;SDS011;20984;43.508;1.504;2023-08-06T03:38:22;11.32;;;2.95;;
34765;SDS011;20984;43.508;1.504;2023-08-06T03:40:48;14.00;;;3.53;;
34765;SDS011;20984;43.508;1.504;2023-08-06T03:43:14;13.80;;;3.22;;
34765;SDS011;20984;43.508;1.504;2023-08-06T03:45:40;10.57;;;2.85;;
34765;SDS011;20984;43.508;1.504;2023-08-06T03:48:06;11.73;;;2.95;;
34765;SDS011;20984;43.508;1.504;2023-08-06T03:50:32;15.05;;;3.20;;
34765;SDS011;20984;43.508;1.504;2023-08-06T03:52:57;9.77;;;2.63;;
34765;SDS011;20984;43.508;1.504;2023-08-06T03:55:23;12.00;;;2.95;;
34765;SDS011;20984;43.508;1.504;2023-08-06T03:57:48;8.70;;;3.67;;
34765;SDS011;20984;43.508;1.504;2023-08-06T04:00:14;12.45;;;3.08;;
34765;SDS011;20984;43.508;1.504;2023-08-06T04:02:40;14.80;;;3.00;;
34765;SDS011;20984;43.508;1.504;2023-08-06T04:05:06;16.02;;;3.10;;
34765;SDS011;20984;43.508;1.504;2023-08-06T04:07:31;11.52;;;3.15;;
34765;SDS011;20984;43.508;1.504;2023-08-06T04:09:58;10.68;;;3.05;;
34765;SDS011;20984;43.508;1.504;2023-08-06T04:12:25;9.48;;;3.58;;
34765;SDS011;20984;43.508;1.504;2023-08-06T04:14:52;9.38;;;2.65;;
34765;SDS011;20984;43.508;1.504;2023-08-06T04:17:18;13.20;;;3.13;;
34765;SDS011;20984;43.508;1.504;2023-08-06T04:19:46;9.50;;;2.50;;
34765;SDS011;20984;43.508;1.504;2023-08-06T04:22:12;10.52;;;3.20;;
34765;SDS011;20984;43.508;1.504;2023-08-06T04:24:38;13.85;;;2.70;;
34765;SDS011;20984;43.508;1.504;2023-08-06T04:27:04;11.40;;;3.53;;
34765;SDS011;20984;43.508;1.504;2023-08-06T04:29:30;10.82;;;2.65;;
34765;SDS011;20984;43.508;1.504;2023-08-06T04:31:56;17.52;;;4.18;;
34765;SDS011;20984;43.508;1.504;2023-08-06T04:34:21;9.63;;;2.53;;
34765;SDS011;20984;43.508;1.504;2023-08-06T04:36:47;12.23;;;3.17;;
34765;SDS011;20984;43.508;1.504;2023-08-06T04:39:13;13.32;;;3.20;;
34765;SDS011;20984;43.508;1.504;2023-08-06T04:41:39;11.95;;;2.95;;
34765;SDS011;20984;43.508;1.504;2023-08-06T04:44:04;13.57;;;3.05;;
34765;SDS011;20984;43.508;1.504;2023-08-06T04:46:30;12.52;;;3.35;;
34765;SDS011;20984;43.508;1.504;2023-08-06T04:48:56;13.10;;;3.00;;
34765;SDS011;20984;43.508;1.504;2023-08-06T04:51:21;17.75;;;3.55;;
34765;SDS011;20984;43.508;1.504;2023-08-06T04:53:47;16.45;;;3.35;;
34765;SDS011;20984;43.508;1.504;2023-08-06T04:56:12;14.23;;;3.60;;
34765;SDS011;20984;43.508;1.504;2023-08-06T04:58:38;16.30;;;5.90;;
34765;SDS011;20984;43.508;1.504;2023-08-06T05:01:04;16.30;;;3.72;;
34765;SDS011;20984;43.508;1.504;2023-08-06T05:03:29;15.20;;;3.22;;
34765;SDS011;20984;43.508;1.504;2023-08-06T05:05:55;15.55;;;3.30;;
34765;SDS011;20984;43.508;1.504;2023-08-06T05:08:21;11.15;;;3.42;;
34765;SDS011;20984;43.508;1.504;2023-08-06T05:10:46;16.90;;;4.35;;
34765;SDS011;20984;43.508;1.504;2023-08-06T05:13:12;10.00;;;3.10;;
34765;SDS011;20984;43.508;1.504;2023-08-06T05:15:38;16.70;;;3.22;;
34765;SDS011;20984;43.508;1.504;2023-08-06T05:18:07;14.32;;;3.35;;
34765;SDS011;20984;43.508;1.504;2023-08-06T05:20:35;13.50;;;3.08;;
34765;SDS011;20984;43.508;1.504;2023-08-06T05:23:02;10.52;;;3.63;;
34765;SDS011;20984;43.508;1.504;2023-08-06T05:25:28;14.90;;;3.42;;
34765;SDS011;20984;43.508;1.504;2023-08-06T05:27:53;10.77;;;2.90;;
34765;SDS011;20984;43.508;1.504;2023-08-06T05:30:20;14.60;;;3.53;;
34765;SDS011;20984;43.508;1.504;2023-08-06T05:32:46;11.85;;;3.50;;
34765;SDS011;20984;43.508;1.504;2023-08-06T05:35:11;11.40;;;3.08;;
34765;SDS011;20984;43.508;1.504;2023-08-06T05:37:37;14.88;;;3.80;;
34765;SDS011;20984;43.508;1.504;2023-08-06T05:40:03;17.27;;;2.83;;
34765;SDS011;20984;43.508;1.504;2023-08-06T05:42:29;12.98;;;3.83;;
34765;SDS011;20984;43.508;1.504;2023-08-06T05:44:55;16.73;;;4.00;;
34765;SDS011;20984;43.508;1.504;2023-08-06T05:47:20;16.13;;;4.18;;
34765;SDS011;20984;43.508;1.504;2023-08-06T05:49:46;11.95;;;2.95;;
34765;SDS011;20984;43.508;1.504;2023-08-06T05:52:12;13.82;;;3.67;;
34765;SDS011;20984;43.508;1.504;2023-08-06T05:54:37;12.32;;;2.88;;
34765;SDS011;20984;43.508;1.504;2023-08-06T05:57:03;10.77;;;3.15;;
34765;SDS011;20984;43.508;1.504;2023-08-06T05:59:29;13.82;;;3.13;;
34765;SDS011;20984;43.508;1.504;2023-08-06T06:01:55;14.55;;;3.65;;
34765;SDS011;20984;43.508;1.504;2023-08-06T06:04:21;12.35;;;3.13;;
34765;SDS011;20984;43.508;1.504;2023-08-06T06:06:46;15.20;;;3.38;;
34765;SDS011;20984;43.508;1.504;2023-08-06T06:09:12;9.13;;;2.88;;
34765;SDS011;20984;43.508;1.504;2023-08-06T06:11:38;14.73;;;3.85;;
34765;SDS011;20984;43.508;1.504;2023-08-06T06:14:03;11.40;;;3.60;;
34765;SDS011;20984;43.508;1.504;2023-08-06T06:16:29;8.43;;;3.15;;
34765;SDS011;20984;43.508;1.504;2023-08-06T06:18:54;13.98;;;3.47;;
34765;SDS011;20984;43.508;1.504;2023-08-06T06:21:22;10.30;;;3.45;;
34765;SDS011;20984;43.508;1.504;2023-08-06T06:23:48;17.92;;;3.42;;
34765;SDS011;20984;43.508;1.504;2023-08-06T06:26:16;11.60;;;3.30;;
34765;SDS011;20984;43.508;1.504;2023-08-06T06:28:42;11.82;;;2.97;;
34765;SDS011;20984;43.508;1.504;2023-08-06T06:31:07;11.85;;;3.33;;
34765;SDS011;20984;43.508;1.504;2023-08-06T06:33:34;12.57;;;3.00;;
34765;SDS011;20984;43.508;1.504;2023-08-06T06:36:00;7.25;;;2.75;;
34765;SDS011;20984;43.508;1.504;2023-08-06T06:38:28;11.43;;;2.90;;
34765;SDS011;20984;43.508;1.504;2023-08-06T06:40:57;7.88;;;3.00;;
34765;SDS011;20984;43.508;1.504;2023-08-06T06:43:23;7.75;;;2.20;;
34765;SDS011;20984;43.508;1.504;2023-08-06T06:45:52;16.48;;;3.42;;
34765;SDS011;20984;43.508;1.504;2023-08-06T06:48:19;13.40;;;2.95;;
34765;SDS011;20984;43.508;1.504;2023-08-06T06:50:47;13.85;;;3.45;;
34765;SDS011;20984;43.508;1.504;2023-08-06T06:53:13;10.45;;;3.03;;
34765;SDS011;20984;43.508;1.504;2023-08-06T06:55:39;14.63;;;3.58;;
34765;SDS011;20984;43.508;1.504;2023-08-06T06:58:05;14.98;;;4.90;;
34765;SDS011;20984;43.508;1.504;2023-08-06T07:00:30;10.63;;;2.80;;
34765;SDS011;20984;43.508;1.504;2023-08-06T07:02:56;17.67;;;3.05;;
34765;SDS011;20984;43.508;1.504;2023-08-06T07:05:22;18.58;;;3.72;;
34765;SDS011;20984;43.508;1.504;2023-08-06T07:07:47;13.50;;;3.90;;
34765;SDS011;20984;43.508;1.504;2023-08-06T07:10:13;12.63;;;3.13;;
34765;SDS011;20984;43.508;1.504;2023-08-06T07:12:39;14.93;;;3.47;;
34765;SDS011;20984;43.508;1.504;2023-08-06T07:15:05;9.70;;;2.97;;
34765;SDS011;20984;43.508;1.504;2023-08-06T07:17:31;10.68;;;2.67;;
34765;SDS011;20984;43.508;1.504;2023-08-06T07:19:57;10.90;;;3.15;;
34765;SDS011;20984;43.508;1.504;2023-08-06T07:22:23;10.52;;;3.28;;
34765;SDS011;20984;43.508;1.504;2023-08-06T07:24:48;8.55;;;2.60;;
34765;SDS011;20984;43.508;1.504;2023-08-06T07:27:14;14.20;;;3.25;;
34765;SDS011;20984;43.508;1.504;2023-08-06T07:29:40;10.88;;;3.40;;
34765;SDS011;20984;43.508;1.504;2023-08-06T07:32:06;18.88;;;4.03;;
34765;SDS011;20984;43.508;1.504;2023-08-06T07:34:32;9.80;;;2.85;;
34765;SDS011;20984;43.508;1.504;2023-08-06T07:36:58;12.60;;;2.78;;
34765;SDS011;20984;43.508;1.504;2023-08-06T07:39:24;14.75;;;3.38;;
34765;SDS011;20984;43.508;1.504;2023-08-06T07:41:50;12.95;;;3.03;;
34765;SDS011;20984;43.508;1.504;2023-08-06T07:44:15;12.77;;;2.88;;
34765;SDS011;20984;43.508;1.504;2023-08-06T07:46:41;12.27;;;2.60;;
34765;SDS011;20984;43.508;1.504;2023-08-06T07:49:07;13.82;;;2.90;;
34765;SDS011;20984;43.508;1.504;2023-08-06T07:51:33;12.55;;;2.78;;
34765;SDS011;20984;43.508;1.504;2023-08-06T07:53:58;10.02;;;2.60;;
34765;SDS011;20984;43.508;1.504;2023-08-06T07:56:24;10.25;;;2.90;;
34765;SDS011;20984;43.508;1.504;2023-08-06T07:58:50;11.52;;;2.88;;
34765;SDS011;20984;43.508;1.504;2023-08-06T08:01:15;9.55;;;2.95;;
34765;SDS011;20984;43.508;1.504;2023-08-06T08:03:41;8.25;;;2.50;;
34765;SDS011;20984;43.508;1.504;2023-08-06T08:06:06;14.70;;;3.10;;
34765;SDS011;20984;43.508;1.504;2023-08-06T08:08:32;10.52;;;2.05;;
34765;SDS011;20984;43.508;1.504;2023-08-06T08:10:58;14.13;;;3.45;;
34765;SDS011;20984;43.508;1.504;2023-08-06T08:13:25;9.75;;;3.20;;
34765;SDS011;20984;43.508;1.504;2023-08-06T08:15:55;10.93;;;2.45;;
34765;SDS011;20984;43.508;1.504;2023-08-06T08:18:23;8.63;;;2.28;;
34765;SDS011;20984;43.508;1.504;2023-08-06T08:20:49;9.70;;;2.88;;
34765;SDS011;20984;43.508;1.504;2023-08-06T08:23:14;11.77;;;2.80;;
34765;SDS011;20984;43.508;1.504;2023-08-06T08:25:40;13.82;;;2.75;;
34765;SDS011;20984;43.508;1.504;2023-08-06T08:28:05;13.38;;;2.83;;
34765;SDS011;20984;43.508;1.504;2023-08-06T08:30:32;9.27;;;2.47;;
34765;SDS011;20984;43.508;1.504;2023-08-06T08:32:57;6.55;;;2.42;;
34765;SDS011;20984;43.508;1.504;2023-08-06T08:35:23;10.43;;;2.83;;
34765;SDS011;20984;43.508;1.504;2023-08-06T08:37:49;8.43;;;2.58;;
34765;SDS011;20984;43.508;1.504;2023-08-06T08:40:15;8.57;;;2.90;;
34765;SDS011;20984;43.508;1.504;2023-08-06T08:42:41;10.57;;;2.25;;
34765;SDS011;20984;43.508;1.504;2023-08-06T08:45:11;10.02;;;2.30;;
34765;SDS011;20984;43.508;1.504;2023-08-06T08:47:41;7.40;;;2.58;;
34765;SDS011;20984;43.508;1.504;2023-08-06T08:50:12;10.88;;;2.22;;
34765;SDS011;20984;43.508;1.504;2023-08-06T08:52:39;10.25;;;2.92;;
34765;SDS011;20984;43.508;1.504;2023-08-06T08:55:06;6.60;;;1.80;;
34765;SDS011;20984;43.508;1.504;2023-08-06T08:57:33;10.30;;;2.85;;
34765;SDS011;20984;43.508;1.504;2023-08-06T08:59:58;11.55;;;3.67;;
34765;SDS011;20984;43.508;1.504;2023-08-06T09:02:25;11.18;;;3.00;;
34765;SDS011;20984;43.508;1.504;2023-08-06T09:04:55;8.80;;;2.20;;
34765;SDS011;20984;43.508;1.504;2023-08-06T09:07:24;7.72;;;2.10;;
34765;SDS011;20984;43.508;1.504;2023-08-06T09:09:51;12.70;;;2.60;;
34765;SDS011;20984;43.508;1.504;2023-08-06T09:12:18;9.98;;;3.10;;
34765;SDS011;20984;43.508;1.504;2023-08-06T09:14:44;11.32;;;2.08;;
34765;SDS011;20984;43.508;1.504;2023-08-06T09:17:09;11.90;;;2.22;;
34765;SDS011;20984;43.508;1.504;2023-08-06T09:19:41;6.60;;;2.30;;
34765;SDS011;20984;43.508;1.504;2023-08-06T09:22:11;10.82;;;2.42;;
34765;SDS011;20984;43.508;1.504;2023-08-06T09:24:39;9.07;;;2.30;;
34765;SDS011;20984;43.508;1.504;2023-08-06T09:27:10;14.32;;;3.08;;
34765;SDS011;20984;43.508;1.504;2023-08-06T09:29:39;12.23;;;2.58;;
34765;SDS011;20984;43.508;1.504;2023-08-06T09:32:06;6.47;;;2.45;;
34765;SDS011;20984;43.508;1.504;2023-08-06T09:34:32;12.63;;;3.03;;
34765;SDS011;20984;43.508;1.504;2023-08-06T09:36:58;6.45;;;1.88;;
34765;SDS011;20984;43.508;1.504;2023-08-06T09:39:27;10.73;;;2.72;;
34765;SDS011;20984;43.508;1.504;2023-08-06T09:41:57;10.00;;;2.88;;
34765;SDS011;20984;43.508;1.504;2023-08-06T09:44:24;7.70;;;2.72;;
34765;SDS011;20984;43.508;1.504;2023-08-06T09:49:19;10.90;;;2.88;;
34765;SDS011;20984;43.508;1.504;2023-08-06T09:51:46;12.48;;;3.03;;
34765;SDS011;20984;43.508;1.504;2023-08-06T09:54:16;9.27;;;2.15;;
34765;SDS011;20984;43.508;1.504;2023-08-06T09:56:42;5.28;;;2.00;;
34765;SDS011;20984;43.508;1.504;2023-08-06T09:59:08;11.93;;;2.45;;
34765;SDS011;20984;43.508;1.504;2023-08-06T10:01:36;8.55;;;2.45;;
34765;SDS011;20984;43.508;1.504;2023-08-06T10:04:02;10.75;;;2.45;;
34765;SDS011;20984;43.508;1.504;2023-08-06T10:06:31;9.07;;;1.92;;
34765;SDS011;20984;43.508;1.504;2023-08-06T10:09:00;13.27;;;2.60;;
34765;SDS011;20984;43.508;1.504;2023-08-06T10:11:26;3.63;;;1.92;;
34765;SDS011;20984;43.508;1.504;2023-08-06T10:14:05;9.27;;;1.98;;
34765;SDS011;20984;43.508;1.504;2023-08-06T10:16:34;9.00;;;2.58;;
34765;SDS011;20984;43.508;1.504;2023-08-06T10:19:01;5.28;;;2.17;;
34765;SDS011;20984;43.508;1.504;2023-08-06T10:21:30;8.30;;;2.10;;
34765;SDS011;20984;43.508;1.504;2023-08-06T10:23:56;7.40;;;1.98;;
34765;SDS011;20984;43.508;1.504;2023-08-06T10:26:28;7.90;;;2.10;;
34765;SDS011;20984;43.508;1.504;2023-08-06T10:28:55;10.40;;;2.38;;
34765;SDS011;20984;43.508;1.504;2023-08-06T10:32:04;14.02;;;2.85;;
34765;SDS011;20984;43.508;1.504;2023-08-06T10:34:20;10.73;;;2.58;;
34765;SDS011;20984;43.508;1.504;2023-08-06T10:36:46;7.28;;;2.10;;
34765;SDS011;20984;43.508;1.504;2023-08-06T10:39:15;9.00;;;2.22;;
34765;SDS011;20984;43.508;1.504;2023-08-06T10:41:44;7.57;;;1.98;;
34765;SDS011;20984;43.508;1.504;2023-08-06T10:44:10;10.20;;;2.40;;
34765;SDS011;20984;43.508;1.504;2023-08-06T10:46:36;6.85;;;2.50;;
34765;SDS011;20984;43.508;1.504;2023-08-06T10:49:03;6.90;;;2.13;;
34765;SDS011;20984;43.508;1.504;2023-08-06T10:51:29;11.88;;;2.17;;
34765;SDS011;20984;43.508;1.504;2023-08-06T10:53:55;8.23;;;2.28;;
34765;SDS011;20984;43.508;1.504;2023-08-06T10:56:23;11.65;;;2.58;;
34765;SDS011;20984;43.508;1.504;2023-08-06T10:58:55;11.53;;;2.70;;
34765;SDS011;20984;43.508;1.504;2023-08-06T11:01:22;15.05;;;2.40;;
34765;SDS011;20984;43.508;1.504;2023-08-06T11:03:50;11.07;;;2.42;;
34765;SDS011;20984;43.508;1.504;2023-08-06T11:06:18;6.40;;;2.20;;
34765;SDS011;20984;43.508;1.504;2023-08-06T11:08:51;8.80;;;2.95;;
34765;SDS011;20984;43.508;1.504;2023-08-06T11:11:18;8.55;;;1.60;;
34765;SDS011;20984;43.508;1.504;2023-08-06T11:13:46;10.45;;;2.45;;
34765;SDS011;20984;43.508;1.504;2023-08-06T11:16:14;7.10;;;2.22;;
34765;SDS011;20984;43.508;1.504;2023-08-06T11:18:40;6.10;;;2.13;;
34765;SDS011;20984;43.508;1.504;2023-08-06T11:21:07;6.18;;;2.13;;
34765;SDS011;20984;43.508;1.504;2023-08-06T11:23:33;8.52;;;2.20;;
34765;SDS011;20984;43.508;1.504;2023-08-06T11:26:00;9.18;;;2.47;;
34765;SDS011;20984;43.508;1.504;2023-08-06T11:28:26;6.75;;;2.00;;
34765;SDS011;20984;43.508;1.504;2023-08-06T11:30:52;5.13;;;1.55;;
34765;SDS011;20984;43.508;1.504;2023-08-06T11:33:21;8.45;;;1.80;;
34765;SDS011;20984;43.508;1.504;2023-08-06T11:35:50;6.10;;;1.98;;
34765;SDS011;20984;43.508;1.504;2023-08-06T11:38:16;6.40;;;2.25;;
34765;SDS011;20984;43.508;1.504;2023-08-06T11:40:46;6.93;;;1.98;;
34765;SDS011;20984;43.508;1.504;2023-08-06T11:43:13;5.07;;;1.92;;
34765;SDS011;20984;43.508;1.504;2023-08-06T11:45:39;8.38;;;1.80;;
34765;SDS011;20984;43.508;1.504;2023-08-06T11:48:05;3.55;;;1.80;;
34765;SDS011;20984;43.508;1.504;2023-08-06T11:50:31;5.63;;;2.58;;
34765;SDS011;20984;43.508;1.504;2023-08-06T11:53:01;9.77;;;1.90;;
34765;SDS011;20984;43.508;1.504;2023-08-06T11:55:28;6.97;;;2.30;;
34765;SDS011;20984;43.508;1.504;2023-08-06T11:57:54;5.65;;;1.85;;
34765;SDS011;20984;43.508;1.504;2023-08-06T12:00:22;7.35;;;2.20;;
34765;SDS011;20984;43.508;1.504;2023-08-06T12:02:49;7.40;;;2.13;;
34765;SDS011;20984;43.508;1.504;2023-08-06T12:05:20;7.50;;;2.50;;
34765;SDS011;20984;43.508;1.504;2023-08-06T12:07:57;5.70;;;1.83;;
34765;SDS011;20984;43.508;1.504;2023-08-06T12:10:24;8.45;;;2.53;;
34765;SDS011;20984;43.508;1.504;2023-08-06T12:12:51;5.05;;;2.00;;
34765;SDS011;20984;43.508;1.504;2023-08-06T12:15:18;10.10;;;1.70;;
34765;SDS011;20984;43.508;1.504;2023-08-06T12:17:44;7.00;;;2.20;;
34765;SDS011;20984;43.508;1.504;2023-08-06T12:20:09;5.68;;;1.48;;
34765;SDS011;20984;43.508;1.504;2023-08-06T12:22:36;7.20;;;2.08;;
34765;SDS011;20984;43.508;1.504;2023-08-06T12:25:05;8.07;;;2.17;;
34765;SDS011;20984;43.508;1.504;2023-08-06T12:27:33;6.65;;;2.30;;
34765;SDS011;20984;43.508;1.504;2023-08-06T12:29:59;8.95;;;2.25;;
34765;SDS011;20984;43.508;1.504;2023-08-06T12:32:25;6.63;;;1.73;;
34765;SDS011;20984;43.508;1.504;2023-08-06T12:34:51;5.03;;;1.88;;
34765;SDS011;20984;43.508;1.504;2023-08-06T12:37:17;7.25;;;2.00;;
34765;SDS011;20984;43.508;1.504;2023-08-06T12:39:42;6.90;;;1.58;;
34765;SDS011;20984;43.508;1.504;2023-08-06T12:42:08;5.05;;;1.73;;
34765;SDS011;20984;43.508;1.504;2023-08-06T12:44:35;4.70;;;1.55;;
34765;SDS011;20984;43.508;1.504;2023-08-06T12:47:00;4.28;;;1.23;;
34765;SDS011;20984;43.508;1.504;2023-08-06T12:49:26;2.47;;;0.98;;
34765;SDS011;20984;43.508;1.504;2023-08-06T12:51:53;2.72;;;1.33;;
34765;SDS011;20984;43.508;1.504;2023-08-06T12:54:20;5.03;;;1.42;;
34765;SDS011;20984;43.508;1.504;2023-08-06T12:56:46;6.30;;;1.73;;
34765;SDS011;20984;43.508;1.504;2023-08-06T12:59:16;6.32;;;1.83;;
34765;SDS011;20984;43.508;1.504;2023-08-06T13:01:42;3.73;;;1.47;;
34765;SDS011;20984;43.508;1.504;2023-08-06T13:04:08;5.18;;;1.60;;
34765;SDS011;20984;43.508;1.504;2023-08-06T13:06:34;7.13;;;1.73;;
34765;SDS011;20984;43.508;1.504;2023-08-06T13:09:07;7.88;;;2.03;;
34765;SDS011;20984;43.508;1.504;2023-08-06T13:11:37;6.72;;;1.70;;
34765;SDS011;20984;43.508;1.504;2023-08-06T13:14:10;3.97;;;1.88;;
34765;SDS011;20984;43.508;1.504;2023-08-06T13:16:37;7.30;;;2.35;;
34765;SDS011;20984;43.508;1.504;2023-08-06T13:19:04;8.02;;;1.90;;
34765;SDS011;20984;43.508;1.504;2023-08-06T13:21:32;6.10;;;2.10;;
34765;SDS011;20984;43.508;1.504;2023-08-06T13:23:59;7.00;;;1.70;;
34765;SDS011;20984;43.508;1.504;2023-08-06T13:26:26;6.75;;;2.05;;
34765;SDS011;20984;43.508;1.504;2023-08-06T13:28:52;5.65;;;2.10;;
34765;SDS011;20984;43.508;1.504;2023-08-06T13:31:18;4.20;;;1.70;;
34765;SDS011;20984;43.508;1.504;2023-08-06T13:33:43;7.70;;;1.95;;
34765;SDS011;20984;43.508;1.504;2023-08-06T13:36:09;3.78;;;1.80;;
34765;SDS011;20984;43.508;1.504;2023-08-06T13:38:34;8.38;;;1.90;;
34765;SDS011;20984;43.508;1.504;2023-08-06T13:41:01;6.80;;;1.95;;
34765;SDS011;20984;43.508;1.504;2023-08-06T13:43:27;6.18;;;1.80;;
34765;SDS011;20984;43.508;1.504;2023-08-06T13:45:53;2.70;;;1.15;;
34765;SDS011;20984;43.508;1.504;2023-08-06T13:48:18;4.70;;;1.33;;
34765;SDS011;20984;43.508;1.504;2023-08-06T13:50:44;8.23;;;1.60;;
34765;SDS011;20984;43.508;1.504;2023-08-06T13:53:10;4.30;;;1.70;;
34765;SDS011;20984;43.508;1.504;2023-08-06T13:55:35;3.50;;;1.70;;
34765;SDS011;20984;43.508;1.504;2023-08-06T13:58:01;6.75;;;1.50;;
34765;SDS011;20984;43.508;1.504;2023-08-06T14:00:27;2.70;;;1.20;;
34765;SDS011;20984;43.508;1.504;2023-08-06T14:02:53;4.72;;;1.35;;
34765;SDS011;20984;43.508;1.504;2023-08-06T14:05:18;3.28;;;1.60;;
34765;SDS011;20984;43.508;1.504;2023-08-06T14:07:44;6.18;;;1.77;;
34765;SDS011;20984;43.508;1.504;2023-08-06T14:10:10;3.17;;;1.40;;
34765;SDS011;20984;43.508;1.504;2023-08-06T14:12:35;5.63;;;1.92;;
34765;SDS011;20984;43.508;1.504;2023-08-06T14:15:01;6.65;;;1.63;;
34765;SDS011;20984;43.508;1.504;2023-08-06T14:17:28;7.28;;;2.25;;
34765;SDS011;20984;43.508;1.504;2023-08-06T14:19:54;5.25;;;1.55;;
34765;SDS011;20984;43.508;1.504;2023-08-06T14:22:19;7.75;;;2.00;;
34765;SDS011;20984;43.508;1.504;2023-08-06T14:24:47;6.30;;;1.60;;
34765;SDS011;20984;43.508;1.504;2023-08-06T14:27:12;7.43;;;1.92;;
34765;SDS011;20984;43.508;1.504;2023-08-06T14:29:38;6.18;;;1.60;;
34765;SDS011;20984;43.508;1.504;2023-08-06T14:32:04;5.43;;;1.80;;
34765;SDS011;20984;43.508;1.504;2023-08-06T14:34:29;5.00;;;1.70;;
34765;SDS011;20984;43.508;1.504;2023-08-06T14:36:55;3.53;;;1.15;;
34765;SDS011;20984;43.508;1.504;2023-08-06T14:39:21;8.45;;;1.98;;
34765;SDS011;20984;43.508;1.504;2023-08-06T14:41:46;9.65;;;2.95;;
34765;SDS011;20984;43.508;1.504;2023-08-06T14:44:13;5.85;;;1.75;;